Ashmore, Illinois
Current Conditions -  °F | °C
As of 11:53 AM on Monday 22 Dec 2014 (Local Time) from KMTO Reporting Station
Light Rain Light Rain  
Wind Chill:   Ceiling: 400
Heat Index:   Visibility: 2.5mi
Dew Point:   Wind: 10mph
Humidity: 93%   Direction: 140°SE
Pressure: 29.74"   Gusts: NA
Location:  39.53°N, 88.02°W
Report Text: KMTO 221753Z AUTO 14009KT 2 1/2SM -RA BR OVC004 05/04 A2974 RMK AO2 SLP074 P0001 60001 T00500039 10050 20011 58036
Loading
Personal Weather Stations






























Interactive Weather Map New forecast layout! Learn more

10-Day Weather Forecast

Advertisements
Track Severe Weather on mobile